createdAt,value
2019-05-25T00:00:13.044Z,8.13
2019-05-25T00:02:42.563Z,8.27
2019-05-25T00:05:12.116Z,9.27
2019-05-25T00:07:41.616Z,8.77
2019-05-25T00:10:11.305Z,8.57
2019-05-25T00:12:40.933Z,9.53
2019-05-25T00:15:10.548Z,9.73
2019-05-25T00:17:40.045Z,9.73
2019-05-25T00:20:09.686Z,9.73
2019-05-25T00:22:39.266Z,9.33
2019-05-25T00:25:09.002Z,10.00
2019-05-25T00:27:38.555Z,9.63
2019-05-25T00:30:08.322Z,9.20
2019-05-25T00:32:37.793Z,8.23
2019-05-25T00:35:07.348Z,8.43
2019-05-25T00:37:36.864Z,8.20
2019-05-25T00:40:07.283Z,8.47
2019-05-25T00:42:36.797Z,7.90
2019-05-25T00:45:06.528Z,8.23
2019-05-25T00:47:36.036Z,8.30
2019-05-25T00:50:07.670Z,8.70
2019-05-25T00:52:37.256Z,8.43
2019-05-25T00:55:07.807Z,8.83
2019-05-25T00:57:37.454Z,8.50
2019-05-25T01:00:07.578Z,9.23
2019-05-25T01:02:39.053Z,9.17
2019-05-25T01:05:08.970Z,9.13
2019-05-25T01:07:38.499Z,9.57
2019-05-25T01:10:08.548Z,8.67
2019-05-25T01:12:38.179Z,9.03
2019-05-25T01:15:08.725Z,9.03
2019-05-25T01:17:38.341Z,8.47
2019-05-25T01:20:09.170Z,8.97
2019-05-25T01:22:38.941Z,9.13
2019-05-25T01:25:08.869Z,8.83
2019-05-25T01:27:38.402Z,8.87
2019-05-25T01:30:10.059Z,9.20
2019-05-25T01:32:39.850Z,7.93
2019-05-25T01:35:09.535Z,9.17
2019-05-25T01:37:39.214Z,8.83
2019-05-25T01:40:11.178Z,9.13
2019-05-25T01:42:40.696Z,8.90
2019-05-25T01:45:10.401Z,8.93
2019-05-25T01:47:39.912Z,8.47
2019-05-25T01:50:09.701Z,8.23
2019-05-25T01:52:39.188Z,8.03
2019-05-25T01:55:08.735Z,9.00
2019-05-25T01:57:38.231Z,8.47
2019-05-25T02:00:09.055Z,8.63
2019-05-25T02:02:38.686Z,7.37
2019-05-25T02:05:08.483Z,7.40
2019-05-25T02:07:38.093Z,7.70
2019-05-25T02:10:09.319Z,7.90
2019-05-25T02:12:40.150Z,8.00
2019-05-25T02:15:10.140Z,8.57
2019-05-25T02:17:39.652Z,8.93
2019-05-25T02:20:09.642Z,8.97
2019-05-25T02:22:39.166Z,8.47
2019-05-25T02:25:17.626Z,8.30
2019-05-25T02:27:40.770Z,8.77
2019-05-25T02:30:11.459Z,8.70
2019-05-25T02:32:41.047Z,9.03
2019-05-25T02:35:15.825Z,8.73
2019-05-25T02:37:45.333Z,8.43
2019-05-25T02:40:14.899Z,8.33
2019-05-25T02:42:44.440Z,8.30
2019-05-25T02:45:14.027Z,8.17
2019-05-25T02:47:43.493Z,7.77
2019-05-25T02:50:13.132Z,8.20
2019-05-25T02:52:42.679Z,7.63
2019-05-25T02:55:12.532Z,7.70
2019-05-25T02:57:42.009Z,8.07
2019-05-25T03:00:11.921Z,8.80
2019-05-25T03:02:41.673Z,8.20
2019-05-25T03:05:13.971Z,8.50
2019-05-25T03:07:45.149Z,8.50
2019-05-25T03:10:15.887Z,8.60
2019-05-25T03:12:45.514Z,8.63
2019-05-25T03:15:15.379Z,8.10
2019-05-25T03:17:45.000Z,8.27
2019-05-25T03:20:14.668Z,8.07
2019-05-25T03:22:44.300Z,7.93
2019-05-25T03:25:13.858Z,8.63
2019-05-25T03:27:43.424Z,8.73
2019-05-25T03:30:13.154Z,9.20
2019-05-25T03:32:42.814Z,8.53
2019-05-25T03:35:12.518Z,8.93
2019-05-25T03:37:42.023Z,8.07
2019-05-25T03:40:11.731Z,8.30
2019-05-25T03:42:41.263Z,8.30
2019-05-25T03:45:10.933Z,7.33
2019-05-25T03:47:40.535Z,8.67
2019-05-25T03:50:10.304Z,8.37
2019-05-25T03:52:39.815Z,8.80
2019-05-25T03:55:09.536Z,8.37
2019-05-25T03:57:39.060Z,8.00
2019-05-25T04:00:09.496Z,8.40
2019-05-25T04:02:39.052Z,7.97
2019-05-25T04:05:08.621Z,7.53
2019-05-25T04:07:38.076Z,8.30
2019-05-25T04:10:07.718Z,8.20
2019-05-25T04:12:37.294Z,8.13
2019-05-25T04:15:07.804Z,7.67
2019-05-25T04:17:37.284Z,7.90
2019-05-25T04:20:07.542Z,7.10
2019-05-25T04:22:37.072Z,7.17
2019-05-25T04:25:06.908Z,6.77
2019-05-25T04:27:36.512Z,6.47
2019-05-25T04:30:06.686Z,6.93
2019-05-25T04:32:36.242Z,6.43
2019-05-25T04:35:06.178Z,6.30
2019-05-25T04:37:35.691Z,6.63
2019-05-25T04:40:06.135Z,6.87
2019-05-25T04:42:35.829Z,6.37
2019-05-25T04:45:06.781Z,6.67
2019-05-25T04:47:36.261Z,5.97
2019-05-25T04:50:07.511Z,6.50
2019-05-25T04:52:40.750Z,6.03
2019-05-25T04:55:08.677Z,6.58
2019-05-25T04:57:38.145Z,5.80
2019-05-25T05:00:09.504Z,5.92
2019-05-25T05:02:39.061Z,6.15
2019-05-25T05:05:08.607Z,6.45
2019-05-25T05:07:38.093Z,6.33
2019-05-25T05:10:08.093Z,6.45
2019-05-25T05:12:37.601Z,6.78
2019-05-25T05:15:07.362Z,6.60
2019-05-25T05:17:36.918Z,7.20
2019-05-25T05:20:07.903Z,6.62
2019-05-25T05:22:37.409Z,6.75
2019-05-25T05:25:08.891Z,6.45
2019-05-25T05:27:38.923Z,6.50
2019-05-25T05:30:09.587Z,6.60
2019-05-25T05:32:39.085Z,6.42
2019-05-25T05:35:08.866Z,6.28
2019-05-25T05:37:39.563Z,6.53
2019-05-25T05:40:09.596Z,7.75
2019-05-25T05:42:39.832Z,7.40
2019-05-25T05:45:09.370Z,7.60
2019-05-25T05:47:40.410Z,7.42
2019-05-25T05:50:10.651Z,7.60
2019-05-25T05:52:40.313Z,7.28
2019-05-25T05:55:11.351Z,7.08
2019-05-25T05:57:40.851Z,7.40
2019-05-25T06:00:11.685Z,7.00
2019-05-25T06:02:41.195Z,7.30
2019-05-25T06:05:11.036Z,7.12
2019-05-25T06:07:40.594Z,7.83
2019-05-25T06:10:10.416Z,8.10
2019-05-25T06:12:40.016Z,7.95
2019-05-25T06:15:09.908Z,8.28
2019-05-25T06:17:39.385Z,8.50
2019-05-25T06:20:10.098Z,8.60
2019-05-25T06:22:39.584Z,8.30
2019-05-25T06:25:09.713Z,8.23
2019-05-25T06:27:39.254Z,8.65
2019-05-25T06:30:09.510Z,8.20
2019-05-25T06:32:39.123Z,8.07
2019-05-25T06:35:09.365Z,8.37
2019-05-25T06:37:38.822Z,9.10
2019-05-25T06:40:09.670Z,8.95
2019-05-25T06:42:39.224Z,9.95
2019-05-25T06:45:09.424Z,9.13
2019-05-25T06:47:38.900Z,9.53
2019-05-25T06:50:09.038Z,9.53
2019-05-25T06:52:38.694Z,8.95
2019-05-25T06:55:08.258Z,9.00
2019-05-25T06:57:43.266Z,8.55
2019-05-25T07:00:09.543Z,8.47
2019-05-25T07:02:39.095Z,7.80
2019-05-25T07:05:10.097Z,8.73
2019-05-25T07:07:39.575Z,8.95
2019-05-25T07:10:09.625Z,8.90
2019-05-25T07:12:39.099Z,8.73
2019-05-25T07:15:09.399Z,9.63
2019-05-25T07:17:38.912Z,9.88
2019-05-25T07:20:08.665Z,9.50
2019-05-25T07:22:38.175Z,8.83
2019-05-25T07:25:08.209Z,10.00
2019-05-25T07:27:37.816Z,9.70
2019-05-25T07:30:07.808Z,9.60
2019-05-25T07:32:37.376Z,10.00
2019-05-25T07:35:07.744Z,10.98
2019-05-25T07:37:37.249Z,9.88
2019-05-25T07:40:08.607Z,9.95
2019-05-25T07:42:38.112Z,10.82
2019-05-25T07:45:08.391Z,10.53
2019-05-25T07:47:37.901Z,10.58
2019-05-25T07:50:07.934Z,9.73
2019-05-25T07:52:37.507Z,10.75
2019-05-25T07:55:07.858Z,10.03
2019-05-25T07:57:37.348Z,10.13
2019-05-25T08:00:07.582Z,11.05
2019-05-25T08:02:37.083Z,10.75
2019-05-25T08:05:07.878Z,12.53
2019-05-25T08:07:37.500Z,11.43
2019-05-25T08:10:07.269Z,11.50
2019-05-25T08:12:36.855Z,11.40
2019-05-25T08:15:06.997Z,11.63
2019-05-25T08:17:36.535Z,11.08
2019-05-25T08:20:06.596Z,11.70
2019-05-25T08:22:36.290Z,11.00
2019-05-25T08:25:07.644Z,12.18
2019-05-25T08:27:37.184Z,12.37
2019-05-25T08:30:08.628Z,9.73
2019-05-25T08:32:38.186Z,11.57
2019-05-25T08:35:07.935Z,12.55
2019-05-25T08:37:37.417Z,12.90
2019-05-25T08:40:07.724Z,11.37
2019-05-25T08:42:37.257Z,10.97
2019-05-25T08:45:07.527Z,12.18
2019-05-25T08:47:37.280Z,12.20
2019-05-25T08:50:08.001Z,12.80
2019-05-25T08:52:37.827Z,13.13
2019-05-25T08:55:07.723Z,12.90
2019-05-25T08:57:37.283Z,13.72
2019-05-25T09:00:07.214Z,13.98
2019-05-25T09:02:36.722Z,14.47
2019-05-25T09:05:07.181Z,14.70
2019-05-25T09:07:36.651Z,13.00
2019-05-25T09:10:08.081Z,12.73
2019-05-25T09:12:37.678Z,13.27
2019-05-25T09:15:07.445Z,12.63
2019-05-25T09:17:37.027Z,12.47
2019-05-25T09:20:07.887Z,13.43
2019-05-25T09:22:37.517Z,14.00
2019-05-25T09:25:08.355Z,13.47
2019-05-25T09:27:37.880Z,14.43
2019-05-25T09:30:09.135Z,14.43
2019-05-25T09:32:38.652Z,12.23
2019-05-25T09:35:08.568Z,14.20
2019-05-25T09:37:38.413Z,12.83
2019-05-25T09:40:08.353Z,13.30
2019-05-25T09:42:38.508Z,13.67
2019-05-25T09:45:09.293Z,14.40
2019-05-25T09:47:38.777Z,14.93
2019-05-25T09:50:08.742Z,15.00
2019-05-25T09:52:38.241Z,16.67
2019-05-25T09:55:08.775Z,15.90
2019-05-25T09:57:41.531Z,16.50
2019-05-25T10:00:12.324Z,15.93
2019-05-25T10:02:42.583Z,15.47
2019-05-25T10:05:13.008Z,15.80
2019-05-25T10:07:42.519Z,15.40
2019-05-25T10:10:12.695Z,15.40
2019-05-25T10:12:42.180Z,15.20
2019-05-25T10:15:12.119Z,14.37
2019-05-25T10:17:41.645Z,13.57
2019-05-25T10:20:11.163Z,15.10
2019-05-25T10:22:40.644Z,13.23
2019-05-25T10:25:10.623Z,14.27
2019-05-25T10:27:40.131Z,13.87
2019-05-25T10:30:10.919Z,14.23
2019-05-25T10:32:40.401Z,14.37
2019-05-25T10:35:10.385Z,13.30
2019-05-25T10:37:39.938Z,13.50
2019-05-25T10:40:09.927Z,13.63
2019-05-25T10:42:39.403Z,13.43
2019-05-25T10:45:09.333Z,13.63
2019-05-25T10:47:40.522Z,13.83
2019-05-25T10:50:12.120Z,14.20
2019-05-25T10:52:41.652Z,14.73
2019-05-25T10:55:11.587Z,13.37
2019-05-25T10:57:41.256Z,13.97
2019-05-25T11:00:11.959Z,15.87
2019-05-25T11:02:41.561Z,14.73
2019-05-25T11:05:11.414Z,15.40
2019-05-25T11:07:41.017Z,14.87
2019-05-25T11:10:11.933Z,14.53
2019-05-25T11:12:41.411Z,15.20
2019-05-25T11:15:11.063Z,13.87
2019-05-25T11:17:40.573Z,12.70
2019-05-25T11:20:10.630Z,12.20
2019-05-25T11:22:40.228Z,13.77
2019-05-25T11:25:10.504Z,7.40
2019-05-25T11:27:39.996Z,8.37
2019-05-25T11:30:10.488Z,11.00
2019-05-25T11:32:40.069Z,10.40
2019-05-25T11:35:09.788Z,8.60
2019-05-25T11:37:40.123Z,9.40
2019-05-25T11:40:10.018Z,8.33
2019-05-25T11:42:39.521Z,7.87
2019-05-25T11:45:09.884Z,8.33
2019-05-25T11:47:39.442Z,9.20
2019-05-25T11:50:09.276Z,8.87
2019-05-25T11:52:39.086Z,8.27
2019-05-25T11:55:09.089Z,7.60
2019-05-25T11:57:38.574Z,8.33
2019-05-25T12:00:23.734Z,7.50
2019-05-25T12:02:41.188Z,6.67
2019-05-25T12:05:11.174Z,7.43
2019-05-25T12:07:44.488Z,7.90
2019-05-25T12:10:12.497Z,7.80
2019-05-25T12:12:42.037Z,9.33
2019-05-25T12:15:11.858Z,9.43
2019-05-25T12:17:41.429Z,9.67
2019-05-25T12:20:13.105Z,9.73
2019-05-25T12:22:42.662Z,8.27
2019-05-25T12:25:12.974Z,10.80
2019-05-25T12:27:42.526Z,10.20
2019-05-25T12:30:12.378Z,9.60
2019-05-25T12:32:41.957Z,10.23
2019-05-25T12:35:11.716Z,10.23
2019-05-25T12:37:41.269Z,10.20
2019-05-25T12:40:11.106Z,10.43
2019-05-25T12:42:40.661Z,10.93
2019-05-25T12:45:10.251Z,10.50
2019-05-25T12:47:39.829Z,10.57
2019-05-25T12:50:09.470Z,11.03
2019-05-25T12:52:39.091Z,11.37
2019-05-25T12:55:09.733Z,9.83
2019-05-25T12:57:39.271Z,9.33
2019-05-25T13:00:16.921Z,9.97
2019-05-25T13:02:40.216Z,9.03
2019-05-25T13:05:10.042Z,10.80
2019-05-25T13:07:39.589Z,9.33
2019-05-25T13:10:10.533Z,9.30
2019-05-25T13:12:40.047Z,8.67
2019-05-25T13:15:10.201Z,8.20
2019-05-25T13:17:39.672Z,7.83
2019-05-25T13:20:09.438Z,6.67
2019-05-25T13:22:39.151Z,7.20
2019-05-25T13:25:08.918Z,7.10
2019-05-25T13:27:38.467Z,3.43
2019-05-25T13:30:08.385Z,2.90
2019-05-25T13:32:37.951Z,2.70
2019-05-25T13:35:07.477Z,2.63
2019-05-25T13:37:36.983Z,2.33
2019-05-25T13:40:07.303Z,2.80
2019-05-25T13:42:36.820Z,2.77
2019-05-25T13:45:08.049Z,2.70
2019-05-25T13:47:37.554Z,2.77
2019-05-25T13:50:08.847Z,3.00
2019-05-25T13:52:38.327Z,3.07
2019-05-25T13:55:08.093Z,3.70
2019-05-25T13:57:37.646Z,3.40
2019-05-25T14:00:07.885Z,3.87
2019-05-25T14:02:37.397Z,4.13
2019-05-25T14:05:07.242Z,3.73
2019-05-25T14:07:36.770Z,4.30
2019-05-25T14:10:08.426Z,3.87
2019-05-25T14:12:37.976Z,4.60
2019-05-25T14:15:08.256Z,4.07
2019-05-25T14:17:37.985Z,3.93
2019-05-25T14:20:07.996Z,4.37
2019-05-25T14:22:37.458Z,4.50
2019-05-25T14:25:07.469Z,4.20
2019-05-25T14:27:36.942Z,4.37
2019-05-25T14:30:07.678Z,5.10
2019-05-25T14:32:37.260Z,4.67
2019-05-25T14:35:07.004Z,4.63
2019-05-25T14:37:36.595Z,4.17
2019-05-25T14:40:11.084Z,4.37
2019-05-25T14:42:38.893Z,4.37
2019-05-25T14:45:09.900Z,4.30
2019-05-25T14:47:39.395Z,4.27
2019-05-25T14:50:09.195Z,4.47
2019-05-25T14:52:38.675Z,5.30
2019-05-25T14:55:08.414Z,4.97
2019-05-25T14:57:37.877Z,6.00
2019-05-25T15:00:10.248Z,6.20
2019-05-25T15:02:39.916Z,6.40
2019-05-25T15:05:09.817Z,5.90
2019-05-25T15:07:39.306Z,5.70
2019-05-25T15:10:09.198Z,6.43
2019-05-25T15:12:38.672Z,5.97
2019-05-25T15:15:09.282Z,6.70
2019-05-25T15:17:38.749Z,6.80
2019-05-25T15:20:09.623Z,6.73
2019-05-25T15:22:39.111Z,6.23
2019-05-25T15:25:08.879Z,7.00
2019-05-25T15:27:38.378Z,7.47
2019-05-25T15:30:08.285Z,6.70
2019-05-25T15:32:37.759Z,7.60
2019-05-25T15:35:07.532Z,7.40
2019-05-25T15:37:37.101Z,7.30
2019-05-25T15:40:09.726Z,8.67
2019-05-25T15:42:39.219Z,8.37
2019-05-25T15:45:09.060Z,8.60
2019-05-25T15:47:38.553Z,9.20
2019-05-25T15:50:10.034Z,8.50
2019-05-25T15:52:39.627Z,8.23
2019-05-25T15:55:09.462Z,9.57
2019-05-25T15:57:39.087Z,9.17
2019-05-25T16:00:11.026Z,10.17
2019-05-25T16:02:40.514Z,10.00
2019-05-25T16:05:10.360Z,9.73
2019-05-25T16:07:42.270Z,10.43
2019-05-25T16:10:11.960Z,9.37
2019-05-25T16:12:41.434Z,9.93
2019-05-25T16:15:11.124Z,10.07
2019-05-25T16:17:40.624Z,11.87
2019-05-25T16:20:10.112Z,12.00
2019-05-25T16:22:40.015Z,12.60
2019-05-25T16:25:09.514Z,11.80
2019-05-25T16:27:39.097Z,12.97
2019-05-25T16:30:08.882Z,12.53
2019-05-25T16:33:09.993Z,11.90
2019-05-25T16:35:10.032Z,11.10
2019-05-25T16:37:39.842Z,10.97
2019-05-25T16:40:09.849Z,11.10
2019-05-25T16:42:39.390Z,10.13
2019-05-25T16:45:09.561Z,10.70
2019-05-25T16:47:39.055Z,10.80
2019-05-25T16:50:09.168Z,10.10
2019-05-25T16:52:38.675Z,10.20
2019-05-25T16:55:08.500Z,9.63
2019-05-25T16:57:38.075Z,10.93
2019-05-25T17:00:09.350Z,10.87
2019-05-25T17:02:38.967Z,10.47
2019-05-25T17:05:08.822Z,10.90
2019-05-25T17:07:38.428Z,9.77
2019-05-25T17:10:08.023Z,8.93
2019-05-25T17:12:37.575Z,11.50
2019-05-25T17:15:07.143Z,10.30
2019-05-25T17:17:36.679Z,10.53
2019-05-25T17:20:06.500Z,8.97
2019-05-25T17:22:35.996Z,9.40
2019-05-25T17:25:07.202Z,12.13
2019-05-25T17:27:36.708Z,14.03
2019-05-25T17:30:07.367Z,15.10
2019-05-25T17:32:36.854Z,14.37
2019-05-25T17:35:06.761Z,13.47
2019-05-25T17:37:36.332Z,13.13
2019-05-25T17:40:07.379Z,11.30
2019-05-25T17:42:37.224Z,11.50
2019-05-25T17:45:07.248Z,10.87
2019-05-25T17:47:36.903Z,10.40
2019-05-25T17:50:07.883Z,9.60
2019-05-25T17:52:37.468Z,8.73
2019-05-25T17:55:07.567Z,8.23
2019-05-25T17:57:37.049Z,7.77
2019-05-25T18:00:08.636Z,7.77
2019-05-25T18:02:38.112Z,7.60
2019-05-25T18:05:08.509Z,7.77
2019-05-25T18:07:38.138Z,8.50
2019-05-25T18:10:08.174Z,8.30
2019-05-25T18:12:37.758Z,8.30
2019-05-25T18:15:09.641Z,9.87
2019-05-25T18:17:39.113Z,9.93
2019-05-25T18:20:10.252Z,9.20
2019-05-25T18:22:39.730Z,11.93
2019-05-25T18:25:09.274Z,11.97
2019-05-25T18:27:38.830Z,12.30
2019-05-25T18:30:09.990Z,12.93
2019-05-25T18:32:39.466Z,12.33
2019-05-25T18:35:09.151Z,11.53
2019-05-25T18:37:38.787Z,13.30
2019-05-25T18:40:09.542Z,12.13
2019-05-25T18:42:39.199Z,12.97
2019-05-25T18:45:08.849Z,12.20
2019-05-25T18:47:38.389Z,11.77
2019-05-25T18:50:09.573Z,11.07
2019-05-25T18:52:39.048Z,12.77
2019-05-25T18:55:09.273Z,13.17
2019-05-25T18:57:38.781Z,13.07
2019-05-25T19:00:08.499Z,13.23
2019-05-25T19:02:38.058Z,13.87
2019-05-25T19:05:08.026Z,13.67
2019-05-25T19:07:37.590Z,13.53
2019-05-25T19:10:10.063Z,13.97
2019-05-25T19:12:39.642Z,12.67
2019-05-25T19:15:09.980Z,12.47
2019-05-25T19:17:39.571Z,12.07
2019-05-25T19:20:09.341Z,11.97
2019-05-25T19:22:38.838Z,13.23
2019-05-25T19:25:09.294Z,24.53
2019-05-25T19:27:38.872Z,17.10
2019-05-25T19:30:10.290Z,15.30
2019-05-25T19:32:39.784Z,13.07
2019-05-25T19:35:10.453Z,13.90
2019-05-25T19:37:42.445Z,15.77
2019-05-25T19:40:11.596Z,18.03
2019-05-25T19:42:41.239Z,18.10
2019-05-25T19:45:12.009Z,15.60
2019-05-25T19:47:41.507Z,14.77
2019-05-25T19:50:11.337Z,16.07
2019-05-25T19:52:40.895Z,14.97
2019-05-25T19:55:10.829Z,14.63
2019-05-25T19:57:40.340Z,13.33
2019-05-25T20:00:10.988Z,14.87
2019-05-25T20:02:40.760Z,13.40
2019-05-25T20:05:16.810Z,12.53
2019-05-25T20:07:42.657Z,12.60
2019-05-25T20:10:12.384Z,11.90
2019-05-25T20:12:41.921Z,11.53
2019-05-25T20:15:11.787Z,11.03
2019-05-25T20:17:41.260Z,11.00
2019-05-25T20:20:11.222Z,10.20
2019-05-25T20:22:40.718Z,10.93
2019-05-25T20:25:10.251Z,10.53
2019-05-25T20:27:39.754Z,10.43
2019-05-25T20:30:09.475Z,10.17
2019-05-25T20:32:39.260Z,9.93
2019-05-25T20:35:09.774Z,9.60
2019-05-25T20:37:39.264Z,10.17
2019-05-25T20:40:10.455Z,9.67
2019-05-25T20:42:40.256Z,9.70
2019-05-25T20:45:10.104Z,10.03
2019-05-25T20:47:39.663Z,9.30
2019-05-25T20:50:09.704Z,9.77
2019-05-25T20:52:39.210Z,10.03
2019-05-25T20:55:08.985Z,9.80
2019-05-25T20:57:38.470Z,10.93
2019-05-25T21:00:08.587Z,11.13
2019-05-25T21:02:38.101Z,11.30
2019-05-25T21:05:07.891Z,11.13
2019-05-25T21:07:37.389Z,10.23
2019-05-25T21:10:07.549Z,10.70
2019-05-25T21:12:37.086Z,10.30
2019-05-25T21:15:08.411Z,10.77
2019-05-25T21:17:37.899Z,11.73
2019-05-25T21:20:07.809Z,11.40
2019-05-25T21:22:37.287Z,11.30
2019-05-25T21:25:08.480Z,11.07
2019-05-25T21:27:37.979Z,10.53
2019-05-25T21:30:08.851Z,10.23
2019-05-25T21:32:38.396Z,10.83
2019-05-25T21:35:08.260Z,10.70
2019-05-25T21:37:37.850Z,10.63
2019-05-25T21:40:08.198Z,11.47
2019-05-25T21:42:37.704Z,12.43
2019-05-25T21:45:08.064Z,11.43
2019-05-25T21:47:37.650Z,11.30
2019-05-25T21:50:07.906Z,12.90
2019-05-25T21:52:37.669Z,12.53
2019-05-25T21:55:07.404Z,12.40
2019-05-25T21:57:36.933Z,12.40
2019-05-25T22:00:10.107Z,12.20
2019-05-25T22:02:39.629Z,11.90
2019-05-25T22:05:09.414Z,12.47
2019-05-25T22:07:38.966Z,13.10
2019-05-25T22:10:09.033Z,12.47
2019-05-25T22:12:40.264Z,14.53
2019-05-25T22:15:11.061Z,13.07
2019-05-25T22:17:40.591Z,13.80
2019-05-25T22:20:10.451Z,14.70
2019-05-25T22:22:40.045Z,15.77
2019-05-25T22:25:10.684Z,15.50
2019-05-25T22:27:40.190Z,14.57
2019-05-25T22:30:10.263Z,14.47
2019-05-25T22:32:39.886Z,13.10
2019-05-25T22:35:09.741Z,13.43
2019-05-25T22:37:39.245Z,12.17
2019-05-25T22:40:09.112Z,12.40
2019-05-25T22:42:38.651Z,11.57
2019-05-25T22:45:08.562Z,12.93
2019-05-25T22:47:38.255Z,11.87
2019-05-25T22:50:08.427Z,13.07
2019-05-25T22:52:38.011Z,11.80
2019-05-25T22:55:07.768Z,11.87
2019-05-25T22:57:37.341Z,12.23
2019-05-25T23:00:08.170Z,12.33
2019-05-25T23:02:37.794Z,12.40
2019-05-25T23:05:07.699Z,12.73
2019-05-25T23:07:37.229Z,12.77
2019-05-25T23:10:08.430Z,12.17
2019-05-25T23:12:38.017Z,12.70
2019-05-25T23:15:08.079Z,11.80
2019-05-25T23:17:37.805Z,12.60
2019-05-25T23:20:08.722Z,11.83
2019-05-25T23:22:38.402Z,12.43
2019-05-25T23:25:08.269Z,11.20
2019-05-25T23:27:37.785Z,12.10
2019-05-25T23:30:07.737Z,11.07
2019-05-25T23:32:37.213Z,11.70
2019-05-25T23:35:07.195Z,10.37
2019-05-25T23:37:36.664Z,10.67
2019-05-25T23:40:08.223Z,10.87
2019-05-25T23:42:37.791Z,11.20
2019-05-25T23:45:07.864Z,12.33
2019-05-25T23:47:37.373Z,12.87
2019-05-25T23:50:07.932Z,12.87
2019-05-25T23:52:37.496Z,12.83
2019-05-25T23:55:07.183Z,12.50
2019-05-25T23:57:36.720Z,12.67
